sensor_id;sensor_type;location;lat;lon;timestamp;temperature;humidity
8882;DHT22;4477;48.736;9.176;2023-05-07T07:28:49;18.40;85.50
8882;DHT22;4477;48.736;9.176;2023-05-07T07:31:16;24.00;64.20
8882;DHT22;4477;48.736;9.176;2023-05-07T07:33:43;24.30;63.20
8882;DHT22;4477;48.736;9.176;2023-05-07T07:36:10;24.50;61.90
8882;DHT22;4477;48.736;9.176;2023-05-07T07:38:38;24.90;60.90
8882;DHT22;4477;48.736;9.176;2023-05-07T07:43:32;25.40;60.20
8882;DHT22;4477;48.736;9.176;2023-05-07T07:45:59;25.80;60.70
8882;DHT22;4477;48.736;9.176;2023-05-07T07:48:26;26.00;59.40
8882;DHT22;4477;48.736;9.176;2023-05-07T07:50:53;26.00;58.80
8882;DHT22;4477;48.736;9.176;2023-05-07T07:53:19;25.60;58.50
8882;DHT22;4477;48.736;9.176;2023-05-07T07:55:48;25.20;58.80
8882;DHT22;4477;48.736;9.176;2023-05-07T07:58:15;25.20;62.50
8882;DHT22;4477;48.736;9.176;2023-05-07T08:00:41;25.70;60.50
8882;DHT22;4477;48.736;9.176;2023-05-07T08:03:09;26.00;58.70
8882;DHT22;4477;48.736;9.176;2023-05-07T08:08:04;26.10;56.60
8882;DHT22;4477;48.736;9.176;2023-05-07T08:10:32;25.50;56.40
8882;DHT22;4477;48.736;9.176;2023-05-07T08:13:01;25.10;57.50
8882;DHT22;4477;48.736;9.176;2023-05-07T08:15:29;24.40;58.80
8882;DHT22;4477;48.736;9.176;2023-05-07T08:17:56;23.80;60.90
8882;DHT22;4477;48.736;9.176;2023-05-07T08:20:23;23.00;63.00
8882;DHT22;4477;48.736;9.176;2023-05-07T08:22:51;23.10;64.30
8882;DHT22;4477;48.736;9.176;2023-05-07T08:25:18;23.60;63.30
8882;DHT22;4477;48.736;9.176;2023-05-07T08:27:45;23.60;63.60
8882;DHT22;4477;48.736;9.176;2023-05-07T08:30:14;24.20;61.20
8882;DHT22;4477;48.736;9.176;2023-05-07T08:32:41;24.70;60.10
8882;DHT22;4477;48.736;9.176;2023-05-07T08:35:08;25.20;58.50
8882;DHT22;4477;48.736;9.176;2023-05-07T08:37:35;25.70;59.00
8882;DHT22;4477;48.736;9.176;2023-05-07T08:40:03;25.70;58.00
8882;DHT22;4477;48.736;9.176;2023-05-07T08:42:31;25.80;56.40
8882;DHT22;4477;48.736;9.176;2023-05-07T08:44:59;25.30;58.90
8882;DHT22;4477;48.736;9.176;2023-05-07T08:47:34;24.40;60.00
8882;DHT22;4477;48.736;9.176;2023-05-07T08:50:02;24.50;61.20
8882;DHT22;4477;48.736;9.176;2023-05-07T08:52:29;24.70;61.90
8882;DHT22;4477;48.736;9.176;2023-05-07T08:54:56;25.10;65.00
8882;DHT22;4477;48.736;9.176;2023-05-07T09:02:17;25.70;61.50
8882;DHT22;4477;48.736;9.176;2023-05-07T09:04:45;26.70;58.00
8882;DHT22;4477;48.736;9.176;2023-05-07T09:07:12;26.20;57.20
8882;DHT22;4477;48.736;9.176;2023-05-07T09:09:39;26.20;57.10
8882;DHT22;4477;48.736;9.176;2023-05-07T09:12:06;26.50;57.90
8882;DHT22;4477;48.736;9.176;2023-05-07T09:24:27;26.40;56.00
8882;DHT22;4477;48.736;9.176;2023-05-07T09:26:58;26.30;58.50
8882;DHT22;4477;48.736;9.176;2023-05-07T09:29:25;26.50;60.80
8882;DHT22;4477;48.736;9.176;2023-05-07T09:31:54;26.50;55.90
8882;DHT22;4477;48.736;9.176;2023-05-07T09:34:21;26.80;56.20
8882;DHT22;4477;48.736;9.176;2023-05-07T09:36:47;26.70;55.50
8882;DHT22;4477;48.736;9.176;2023-05-07T09:39:16;26.60;56.10
8882;DHT22;4477;48.736;9.176;2023-05-07T09:41:44;26.30;55.90
8882;DHT22;4477;48.736;9.176;2023-05-07T09:46:38;26.90;55.60
8882;DHT22;4477;48.736;9.176;2023-05-07T09:49:07;26.90;54.10
8882;DHT22;4477;48.736;9.176;2023-05-07T09:51:43;26.70;54.90
8882;DHT22;4477;48.736;9.176;2023-05-07T09:59:08;26.90;57.10
8882;DHT22;4477;48.736;9.176;2023-05-07T10:01:36;27.40;52.80
8882;DHT22;4477;48.736;9.176;2023-05-07T10:04:04;26.80;54.70
8882;DHT22;4477;48.736;9.176;2023-05-07T10:06:34;26.50;53.70
8882;DHT22;4477;48.736;9.176;2023-05-07T10:09:01;26.00;55.00
8882;DHT22;4477;48.736;9.176;2023-05-07T10:11:29;26.30;55.10
8882;DHT22;4477;48.736;9.176;2023-05-07T10:13:57;26.90;56.50
8882;DHT22;4477;48.736;9.176;2023-05-07T10:21:22;27.80;55.00
8882;DHT22;4477;48.736;9.176;2023-05-07T11:35:16;28.20;52.60
8882;DHT22;4477;48.736;9.176;2023-05-07T11:37:44;29.30;46.40
8882;DHT22;4477;48.736;9.176;2023-05-07T11:40:12;28.40;47.00
8882;DHT22;4477;48.736;9.176;2023-05-07T11:42:40;27.70;49.80
8882;DHT22;4477;48.736;9.176;2023-05-07T11:45:09;27.40;50.60
8882;DHT22;4477;48.736;9.176;2023-05-07T11:47:37;27.30;50.60
8882;DHT22;4477;48.736;9.176;2023-05-07T11:50:06;27.20;50.50
8882;DHT22;4477;48.736;9.176;2023-05-07T11:52:33;26.60;48.80
8882;DHT22;4477;48.736;9.176;2023-05-07T11:55:01;26.20;51.40
8882;DHT22;4477;48.736;9.176;2023-05-07T11:57:29;25.80;51.70
8882;DHT22;4477;48.736;9.176;2023-05-07T11:59:56;25.40;53.80
8882;DHT22;4477;48.736;9.176;2023-05-07T12:02:24;25.10;54.00
8882;DHT22;4477;48.736;9.176;2023-05-07T12:04:53;24.80;54.10
8882;DHT22;4477;48.736;9.176;2023-05-07T12:07:20;24.40;54.40
8882;DHT22;4477;48.736;9.176;2023-05-07T12:09:47;24.10;56.40
8882;DHT22;4477;48.736;9.176;2023-05-07T12:12:14;23.80;57.90
8882;DHT22;4477;48.736;9.176;2023-05-07T12:17:12;23.50;60.10
8882;DHT22;4477;48.736;9.176;2023-05-07T12:51:55;21.80;67.30
8882;DHT22;4477;48.736;9.176;2023-05-07T12:59:33;15.30;90.00
